createdAt,value
2018-10-01T00:00:02.885Z,99.99
2018-10-01T00:01:02.885Z,99.99
2018-10-01T00:02:02.905Z,99.99
2018-10-01T00:03:03.019Z,99.99
2018-10-01T00:04:02.944Z,99.99
2018-10-01T00:05:02.960Z,99.99
2018-10-01T00:06:02.960Z,99.99
2018-10-01T00:07:02.976Z,99.99
2018-10-01T00:08:03.087Z,99.99
2018-10-01T00:09:03.101Z,99.99
2018-10-01T00:10:03.031Z,99.99
2018-10-01T00:11:03.038Z,99.99
2018-10-01T00:12:03.055Z,99.99
2018-10-01T00:13:03.060Z,99.99
2018-10-01T00:14:03.184Z,99.99
2018-10-01T00:15:03.102Z,99.99
2018-10-01T00:16:03.105Z,99.99
2018-10-01T00:17:03.138Z,99.99
2018-10-01T00:18:03.136Z,99.99
2018-10-01T00:19:03.260Z,99.99
2018-10-01T00:20:03.169Z,99.99
2018-10-01T00:21:03.191Z,99.99
2018-10-01T00:22:03.186Z,99.99
2018-10-01T00:23:03.201Z,99.99
2018-10-01T00:24:03.385Z,99.99
2018-10-01T00:25:03.248Z,99.99
2018-10-01T00:26:03.277Z,99.99
2018-10-01T00:27:03.273Z,99.99
2018-10-01T00:28:03.274Z,99.99
2018-10-01T00:29:03.543Z,99.99
2018-10-01T00:30:03.304Z,99.99
2018-10-01T00:31:03.327Z,99.99
2018-10-01T00:32:03.347Z,99.99
2018-10-01T00:33:03.358Z,99.99
2018-10-01T00:34:03.466Z,99.99
2018-10-01T00:35:03.372Z,99.99
2018-10-01T00:36:03.392Z,99.99
2018-10-01T00:37:03.418Z,99.99
2018-10-01T00:38:03.414Z,99.99
2018-10-01T00:39:03.545Z,99.99
2018-10-01T00:40:03.454Z,99.99
2018-10-01T00:41:03.458Z,99.99
2018-10-01T00:42:03.486Z,99.99
2018-10-01T00:43:03.502Z,99.99
2018-10-01T00:44:03.604Z,99.99
2018-10-01T00:45:03.529Z,99.99
2018-10-01T00:46:03.533Z,99.99
2018-10-01T00:47:03.558Z,99.99
2018-10-01T00:48:03.569Z,99.99
2018-10-01T00:49:03.737Z,99.99
2018-10-01T00:50:03.590Z,99.99
2018-10-01T00:51:03.619Z,99.99
2018-10-01T00:52:03.618Z,99.99
2018-10-01T00:53:03.638Z,99.99
2018-10-01T00:54:03.747Z,99.99
2018-10-01T00:55:03.663Z,99.99
2018-10-01T00:56:03.686Z,99.99
2018-10-01T00:57:03.694Z,99.99
2018-10-01T00:58:03.703Z,99.99
2018-10-01T00:59:03.928Z,99.99
2018-10-01T01:00:03.731Z,99.99
2018-10-01T01:01:03.760Z,99.99
2018-10-01T01:02:03.762Z,99.99
2018-10-01T01:03:03.784Z,99.99
2018-10-01T01:04:03.943Z,99.99
2018-10-01T01:05:03.805Z,99.99
2018-10-01T01:06:03.833Z,99.99
2018-10-01T01:07:03.844Z,99.99
2018-10-01T01:08:03.844Z,99.99
2018-10-01T01:09:03.962Z,99.99
2018-10-01T01:10:03.877Z,99.99
2018-10-01T01:11:03.884Z,99.99
2018-10-01T01:12:03.913Z,99.99
2018-10-01T01:13:03.919Z,99.99
2018-10-01T01:14:04.043Z,99.99
2018-10-01T01:15:03.951Z,99.99
2018-10-01T01:16:03.958Z,99.99
2018-10-01T01:17:03.981Z,99.99
2018-10-01T01:18:03.991Z,99.99
2018-10-01T01:19:04.114Z,99.99
2018-10-01T01:20:04.024Z,99.99
2018-10-01T01:21:04.041Z,99.99
2018-10-01T01:22:04.059Z,99.99
2018-10-01T01:23:04.071Z,99.99
2018-10-01T01:24:04.075Z,99.99
2018-10-01T01:25:04.184Z,99.99
2018-10-01T01:26:04.117Z,99.99
2018-10-01T01:27:04.130Z,99.99
2018-10-01T01:28:37.357Z,99.99
2018-10-01T01:29:04.161Z,99.99
2018-10-01T01:30:04.261Z,99.99
2018-10-01T01:31:04.193Z,99.99
2018-10-01T01:32:04.188Z,99.99
2018-10-01T01:33:04.214Z,99.99
2018-10-01T01:34:04.224Z,99.99
2018-10-01T01:35:04.394Z,99.99
2018-10-01T01:36:04.247Z,99.99
2018-10-01T01:37:04.261Z,99.99
2018-10-01T01:38:04.294Z,99.99
2018-10-01T01:39:04.301Z,99.99
2018-10-01T01:40:04.417Z,99.99
2018-10-01T01:41:04.334Z,99.99
2018-10-01T01:42:04.349Z,99.99
2018-10-01T01:43:04.366Z,99.99
2018-10-01T01:44:04.367Z,99.99
2018-10-01T01:45:04.648Z,99.99
2018-10-01T01:46:04.392Z,99.99
2018-10-01T01:47:04.409Z,99.99
2018-10-01T01:48:04.444Z,99.99
2018-10-01T01:49:04.450Z,99.99
2018-10-01T01:50:04.716Z,99.99
2018-10-01T01:51:04.465Z,99.99
2018-10-01T01:52:04.478Z,99.99
2018-10-01T01:53:04.496Z,99.99
2018-10-01T01:54:04.515Z,99.99
2018-10-01T01:55:04.638Z,99.99
2018-10-01T01:56:04.546Z,99.99
2018-10-01T01:57:04.547Z,99.99
2018-10-01T01:58:04.562Z,99.99
2018-10-01T01:59:04.598Z,99.99
2018-10-01T02:00:04.711Z,99.99
2018-10-01T02:01:04.610Z,99.99
2018-10-01T02:02:04.646Z,99.99
2018-10-01T02:03:04.651Z,99.99
2018-10-01T02:04:04.671Z,99.99
2018-10-01T02:05:04.883Z,99.99
2018-10-01T02:06:04.698Z,99.99
2018-10-01T02:07:04.708Z,99.99
2018-10-01T02:08:04.714Z,99.99
2018-10-01T02:09:04.730Z,99.99
2018-10-01T02:10:04.852Z,99.99
2018-10-01T02:11:04.769Z,99.99
2018-10-01T02:12:04.776Z,99.99
2018-10-01T02:13:04.796Z,99.99
2018-10-01T02:14:04.802Z,99.99
2018-10-01T02:15:04.963Z,99.99
2018-10-01T02:16:04.834Z,99.99
2018-10-01T02:17:04.859Z,99.99
2018-10-01T02:18:04.861Z,99.99
2018-10-01T02:19:04.880Z,99.99
2018-10-01T02:20:04.986Z,99.99
2018-10-01T02:21:04.912Z,99.99
2018-10-01T02:22:04.926Z,99.99
2018-10-01T02:23:04.951Z,99.99
2018-10-01T02:24:04.956Z,99.99
2018-10-01T02:25:05.478Z,99.99
2018-10-01T02:26:04.978Z,99.99
2018-10-01T02:27:04.989Z,99.99
2018-10-01T02:28:05.007Z,99.99
2018-10-01T02:29:05.020Z,99.99
2018-10-01T02:30:05.032Z,99.99
2018-10-01T02:31:05.158Z,99.99
2018-10-01T02:32:05.070Z,99.99
2018-10-01T02:33:05.090Z,99.99
2018-10-01T02:34:05.103Z,99.99
2018-10-01T02:35:05.108Z,99.99
2018-10-01T02:36:05.226Z,99.99
2018-10-01T02:37:05.147Z,99.99
2018-10-01T02:38:05.148Z,99.99
2018-10-01T02:39:05.178Z,99.99
2018-10-01T02:40:05.193Z,99.99
2018-10-01T02:41:05.307Z,99.99
2018-10-01T02:42:05.207Z,99.49
2018-10-01T02:43:05.228Z,98.54
2018-10-01T02:44:05.249Z,98.44
2018-10-01T02:45:05.265Z,98.82
2018-10-01T02:46:05.376Z,99.99
2018-10-01T02:47:05.299Z,98.54
2018-10-01T02:48:05.301Z,99.99
2018-10-01T02:49:05.331Z,99.99
2018-10-01T02:50:05.336Z,99.99
2018-10-01T02:51:05.440Z,99.99
2018-10-01T02:52:05.361Z,99.99
2018-10-01T02:53:05.375Z,99.99
2018-10-01T02:54:05.398Z,99.99
2018-10-01T02:55:05.402Z,99.99
2018-10-01T02:56:05.524Z,99.99
2018-10-01T02:57:05.431Z,99.99
2018-10-01T02:58:05.446Z,99.99
2018-10-01T02:59:05.460Z,99.99
2018-10-01T03:00:05.484Z,97.96
2018-10-01T03:01:05.598Z,98.77
2018-10-01T03:02:05.493Z,99.40
2018-10-01T03:03:05.514Z,98.72
2018-10-01T03:04:05.537Z,99.69
2018-10-01T03:05:05.590Z,99.78
2018-10-01T03:06:05.810Z,97.96
2018-10-01T03:07:05.590Z,98.72
2018-10-01T03:08:05.599Z,99.78
2018-10-01T03:09:05.612Z,98.63
2018-10-01T03:10:05.618Z,98.00
2018-10-01T03:11:05.743Z,99.26
2018-10-01T03:12:05.665Z,99.01
2018-10-01T03:13:05.664Z,99.64
2018-10-01T03:14:05.685Z,99.99
2018-10-01T03:15:05.711Z,99.99
2018-10-01T03:16:05.805Z,99.99
2018-10-01T03:17:05.727Z,99.99
2018-10-01T03:18:05.733Z,99.99
2018-10-01T03:19:05.747Z,99.99
2018-10-01T03:20:05.772Z,99.99
2018-10-01T03:21:05.954Z,99.99
2018-10-01T03:22:05.802Z,99.99
2018-10-01T03:23:05.804Z,99.99
2018-10-01T03:24:05.830Z,99.99
2018-10-01T03:25:05.850Z,99.99
2018-10-01T03:26:06.118Z,99.99
2018-10-01T03:27:05.874Z,99.99
2018-10-01T03:28:05.882Z,99.99
2018-10-01T03:29:05.905Z,99.99
2018-10-01T03:30:05.908Z,99.99
2018-10-01T03:31:05.922Z,99.40
2018-10-01T03:32:06.039Z,98.19
2018-10-01T03:33:05.954Z,97.28
2018-10-01T03:34:05.976Z,98.54
2018-10-01T03:35:05.997Z,98.63
2018-10-01T03:36:06.008Z,99.30
2018-10-01T03:37:06.107Z,99.59
2018-10-01T03:38:06.043Z,97.96
2018-10-01T03:39:06.042Z,97.19
2018-10-01T03:40:06.212Z,96.66
2018-10-01T03:41:06.070Z,96.08
2018-10-01T03:42:06.187Z,97.42
2018-10-01T03:43:06.101Z,99.06
2018-10-01T03:44:06.112Z,99.64
2018-10-01T03:45:06.129Z,99.99
2018-10-01T03:46:06.147Z,99.99
2018-10-01T03:47:06.256Z,99.99
2018-10-01T03:48:06.172Z,99.99
2018-10-01T03:49:06.201Z,99.64
2018-10-01T03:50:06.204Z,99.40
2018-10-01T03:51:06.218Z,98.24
2018-10-01T03:52:06.483Z,98.24
2018-10-01T03:53:06.246Z,97.52
2018-10-01T03:54:06.259Z,97.57
2018-10-01T03:55:06.281Z,97.62
2018-10-01T03:56:06.303Z,97.47
2018-10-01T03:57:06.463Z,98.05
2018-10-01T03:58:06.317Z,97.47
2018-10-01T03:59:06.335Z,98.05
2018-10-01T04:00:06.361Z,97.76
2018-10-01T04:01:06.368Z,98.34
2018-10-01T04:02:06.488Z,98.82
2018-10-01T04:03:06.452Z,97.96
2018-10-01T04:04:06.419Z,97.67
2018-10-01T04:05:06.424Z,97.57
2018-10-01T04:06:06.447Z,97.09
2018-10-01T04:07:06.552Z,97.67
2018-10-01T04:08:06.477Z,96.70
2018-10-01T04:09:06.484Z,96.89
2018-10-01T04:10:06.492Z,96.70
2018-10-01T04:11:06.523Z,96.99
2018-10-01T04:12:06.625Z,96.42
2018-10-01T04:13:06.536Z,95.94
2018-10-01T04:14:06.550Z,96.03
2018-10-01T04:15:06.563Z,95.65
2018-10-01T04:16:06.581Z,96.03
2018-10-01T04:17:06.850Z,95.74
2018-10-01T04:18:06.607Z,96.80
2018-10-01T04:19:06.637Z,96.99
2018-10-01T04:20:06.642Z,95.74
2018-10-01T04:21:06.675Z,96.03
2018-10-01T04:22:06.784Z,95.55
2018-10-01T04:23:06.687Z,96.03
2018-10-01T04:24:06.700Z,95.94
2018-10-01T04:25:06.725Z,95.45
2018-10-01T04:26:06.739Z,95.65
2018-10-01T04:27:06.992Z,95.84
2018-10-01T04:28:06.812Z,95.26
2018-10-01T04:29:06.786Z,95.94
2018-10-01T04:30:06.784Z,95.74
2018-10-01T04:31:06.817Z,95.45
2018-10-01T04:32:06.976Z,95.45
2018-10-01T04:33:06.834Z,94.97
2018-10-01T04:34:06.858Z,94.87
2018-10-01T04:35:06.873Z,93.62
2018-10-01T04:36:06.877Z,92.85
2018-10-01T04:37:07.151Z,92.18
2018-10-01T04:38:06.916Z,92.76
2018-10-01T04:39:06.928Z,92.76
2018-10-01T04:40:06.930Z,94.20
2018-10-01T04:41:06.957Z,93.72
2018-10-01T04:42:06.973Z,93.53
2018-10-01T04:43:07.084Z,94.40
2018-10-01T04:44:06.993Z,95.07
2018-10-01T04:45:07.017Z,94.59
2018-10-01T04:46:07.032Z,94.20
2018-10-01T04:47:07.047Z,93.53
2018-10-01T04:48:07.060Z,92.57
2018-10-01T04:49:07.309Z,90.83
2018-10-01T04:50:07.091Z,91.22
2018-10-01T04:51:07.105Z,91.41
2018-10-01T04:52:07.139Z,91.31
2018-10-01T04:53:07.138Z,91.51
2018-10-01T04:54:07.247Z,91.70
2018-10-01T04:55:07.166Z,91.80
2018-10-01T04:56:07.177Z,90.55
2018-10-01T04:57:07.183Z,90.55
2018-10-01T04:58:07.297Z,91.03
2018-10-01T04:59:07.471Z,91.41
2018-10-01T05:00:07.241Z,91.13
2018-10-01T05:01:07.240Z,91.31
2018-10-01T05:02:07.264Z,91.70
2018-10-01T05:03:07.284Z,90.93
2018-10-01T05:04:07.406Z,91.41
2018-10-01T05:05:07.297Z,91.22
2018-10-01T05:06:07.361Z,91.22
2018-10-01T05:07:07.336Z,90.55
2018-10-01T05:08:07.339Z,90.55
2018-10-01T05:09:07.454Z,89.01
2018-10-01T05:10:07.387Z,88.43
2018-10-01T05:11:07.383Z,88.43
2018-10-01T05:12:07.398Z,88.33
2018-10-01T05:13:07.426Z,88.04
2018-10-01T05:14:07.557Z,88.53
2018-10-01T05:15:07.444Z,88.04
2018-10-01T05:16:07.456Z,88.62
2018-10-01T05:17:07.475Z,88.81
2018-10-01T05:18:07.488Z,88.81
2018-10-01T05:19:07.653Z,87.95
2018-10-01T05:20:07.525Z,88.91
2018-10-01T05:21:07.529Z,88.91
2018-10-01T05:22:07.561Z,88.71
2018-10-01T05:23:07.563Z,88.53
2018-10-01T05:24:07.693Z,89.20
2018-10-01T05:25:07.595Z,89.01
2018-10-01T05:26:07.624Z,89.39
2018-10-01T05:27:07.747Z,89.20
2018-10-01T05:28:07.633Z,89.20
2018-10-01T05:29:07.759Z,88.81
2018-10-01T05:30:07.663Z,88.91
2018-10-01T05:31:07.687Z,88.04
2018-10-01T05:32:07.691Z,88.71
2018-10-01T05:33:07.714Z,88.91
2018-10-01T05:34:07.884Z,89.49
2018-10-01T05:35:07.735Z,88.53
2018-10-01T05:36:07.759Z,88.71
2018-10-01T05:37:07.761Z,88.53
2018-10-01T05:38:07.789Z,88.62
2018-10-01T05:39:08.047Z,88.95
2018-10-01T05:40:07.808Z,87.76
2018-10-01T05:41:07.824Z,87.27
2018-10-01T05:42:07.837Z,86.41
2018-10-01T05:43:07.858Z,86.69
2018-10-01T05:44:07.877Z,86.51
2018-10-01T05:45:07.985Z,85.93
2018-10-01T05:46:07.903Z,85.93
2018-10-01T05:47:07.917Z,85.44
2018-10-01T05:48:07.933Z,85.44
2018-10-01T05:49:07.966Z,85.93
2018-10-01T05:50:08.055Z,85.44
2018-10-01T05:51:07.981Z,85.83
2018-10-01T05:52:08.023Z,85.44
2018-10-01T05:53:07.997Z,85.64
2018-10-01T05:54:08.012Z,85.93
2018-10-01T05:55:08.023Z,85.35
2018-10-01T05:56:08.151Z,85.06
2018-10-01T05:57:08.066Z,85.54
2018-10-01T05:58:08.200Z,85.06
2018-10-01T05:59:08.103Z,85.06
2018-10-01T06:00:08.106Z,84.97
2018-10-01T06:01:08.215Z,85.35
2018-10-01T06:02:08.127Z,84.67
2018-10-01T06:03:08.157Z,84.97
2018-10-01T06:04:08.159Z,84.87
2018-10-01T06:05:08.190Z,85.25
2018-10-01T06:06:08.292Z,85.35
2018-10-01T06:07:08.220Z,85.35
2018-10-01T06:08:08.226Z,85.16
2018-10-01T06:09:08.229Z,85.54
2018-10-01T06:10:08.248Z,85.35
2018-10-01T06:11:08.418Z,84.87
2018-10-01T06:12:08.282Z,85.35
2018-10-01T06:13:08.301Z,85.44
2018-10-01T06:14:08.306Z,85.35
2018-10-01T06:15:08.327Z,84.67
2018-10-01T06:16:08.438Z,85.25
2018-10-01T06:17:08.345Z,85.06
2018-10-01T06:18:08.364Z,84.97
2018-10-01T06:19:08.378Z,85.64
2018-10-01T06:20:08.407Z,85.44
2018-10-01T06:21:08.656Z,85.25
2018-10-01T06:22:08.418Z,85.64
2018-10-01T06:23:08.449Z,85.16
2018-10-01T06:24:08.456Z,85.93
2018-10-01T06:25:08.498Z,85.35
2018-10-01T06:26:08.579Z,85.93
2018-10-01T06:27:08.499Z,85.35
2018-10-01T06:28:08.516Z,85.25
2018-10-01T06:29:08.535Z,85.25
2018-10-01T06:30:08.547Z,85.16
2018-10-01T06:31:08.811Z,84.77
2018-10-01T06:32:08.572Z,84.77
2018-10-01T06:33:08.593Z,84.77
2018-10-01T06:34:08.607Z,84.67
2018-10-01T06:35:08.603Z,84.87
2018-10-01T06:36:08.752Z,85.16
2018-10-01T06:37:08.644Z,84.77
2018-10-01T06:38:08.657Z,84.67
2018-10-01T06:39:08.679Z,84.10
2018-10-01T06:40:08.694Z,84.67
2018-10-01T06:41:08.796Z,84.77
2018-10-01T06:42:08.777Z,84.29
2018-10-01T06:43:08.736Z,84.48
2018-10-01T06:44:08.735Z,84.39
2018-10-01T06:45:08.766Z,84.58
2018-10-01T06:46:08.882Z,84.29
2018-10-01T06:47:08.789Z,84.97
2018-10-01T06:48:08.800Z,84.87
2018-10-01T06:49:08.814Z,85.16
2018-10-01T06:50:08.836Z,84.87
2018-10-01T06:51:09.154Z,85.16
2018-10-01T06:52:08.850Z,85.16
2018-10-01T06:53:08.876Z,85.21
2018-10-01T06:54:08.884Z,85.25
2018-10-01T06:55:08.901Z,85.35
2018-10-01T06:56:08.925Z,84.87
2018-10-01T06:57:09.032Z,84.97
2018-10-01T06:58:08.957Z,84.87
2018-10-01T06:59:08.958Z,84.87
2018-10-01T07:00:08.970Z,85.11
2018-10-01T07:01:09.042Z,84.97
2018-10-01T07:02:09.000Z,84.39
2018-10-01T07:03:09.131Z,84.73
2018-10-01T07:04:09.029Z,84.87
2018-10-01T07:05:09.041Z,85.21
2018-10-01T07:06:09.059Z,85.40
2018-10-01T07:07:09.105Z,85.31
2018-10-01T07:08:09.351Z,85.35
2018-10-01T07:09:09.137Z,85.35
2018-10-01T07:10:09.127Z,85.06
2018-10-01T07:11:09.154Z,85.06
2018-10-01T07:12:09.149Z,85.25
2018-10-01T07:13:09.371Z,84.87
2018-10-01T07:14:09.184Z,85.35
2018-10-01T07:15:09.203Z,85.25
2018-10-01T07:16:09.212Z,85.06
2018-10-01T07:17:09.330Z,85.25
2018-10-01T07:18:09.334Z,85.25
2018-10-01T07:19:09.257Z,84.77
2018-10-01T07:20:09.271Z,84.83
2018-10-01T07:21:09.290Z,84.48
2018-10-01T07:22:09.300Z,84.19
2018-10-01T07:23:09.533Z,84.10
2018-10-01T07:24:09.320Z,83.72
2018-10-01T07:25:09.338Z,83.33
2018-10-01T07:26:09.350Z,83.33
2018-10-01T07:27:09.357Z,83.42
2018-10-01T07:28:09.486Z,83.72
2018-10-01T07:29:09.388Z,83.04
2018-10-01T07:30:09.404Z,83.33
2018-10-01T07:31:09.431Z,83.23
2018-10-01T07:32:09.445Z,83.19
2018-10-01T07:33:09.544Z,83.23
2018-10-01T07:34:09.474Z,83.14
2018-10-01T07:35:09.490Z,83.52
2018-10-01T07:36:09.506Z,83.42
2018-10-01T07:37:09.517Z,83.23
2018-10-01T07:38:09.631Z,83.67
2018-10-01T07:39:09.548Z,83.72
2018-10-01T07:40:09.550Z,83.23
2018-10-01T07:41:09.563Z,83.42
2018-10-01T07:42:09.589Z,83.23
2018-10-01T07:43:09.856Z,83.33
2018-10-01T07:44:09.618Z,83.04
2018-10-01T07:45:09.722Z,82.85
2018-10-01T07:46:09.754Z,82.75
2018-10-01T07:47:09.663Z,83.04
2018-10-01T07:48:09.914Z,82.85
2018-10-01T07:49:09.676Z,83.14
2018-10-01T07:50:09.716Z,82.75
2018-10-01T07:51:09.894Z,82.37
2018-10-01T07:52:09.726Z,82.85
2018-10-01T07:53:10.003Z,82.94
2018-10-01T07:54:09.756Z,83.04
2018-10-01T07:55:09.769Z,82.94
2018-10-01T07:56:09.782Z,83.14
2018-10-01T07:57:09.861Z,83.14
2018-10-01T07:58:09.815Z,83.42
2018-10-01T07:59:09.935Z,82.75
2018-10-01T08:00:10.038Z,82.56
2018-10-01T08:01:09.872Z,82.85
2018-10-01T08:02:09.976Z,82.56
2018-10-01T08:03:09.887Z,82.17
2018-10-01T08:04:10.014Z,82.27
2018-10-01T08:05:09.926Z,81.60
2018-10-01T08:06:09.930Z,81.88
2018-10-01T08:07:09.945Z,82.17
2018-10-01T08:08:10.019Z,81.30
2018-10-01T08:09:09.976Z,81.40
2018-10-01T08:10:10.100Z,81.30
2018-10-01T08:11:10.016Z,81.30
2018-10-01T08:12:10.016Z,81.21
2018-10-01T08:13:10.042Z,80.83
2018-10-01T08:14:10.118Z,81.40
2018-10-01T08:15:10.327Z,81.40
2018-10-01T08:16:10.080Z,81.12
2018-10-01T08:17:10.093Z,81.30
2018-10-01T08:18:10.105Z,81.88
2018-10-01T08:19:10.119Z,81.88
2018-10-01T08:20:10.453Z,81.50
2018-10-01T08:21:10.146Z,81.98
2018-10-01T08:22:10.160Z,81.50
2018-10-01T08:23:10.188Z,81.70
2018-10-01T08:24:10.202Z,81.88
2018-10-01T08:25:10.476Z,81.21
2018-10-01T08:26:10.300Z,81.21
2018-10-01T08:27:10.240Z,82.27
2018-10-01T08:28:10.264Z,81.88
2018-10-01T08:29:10.402Z,81.88
2018-10-01T08:30:10.386Z,81.30
2018-10-01T08:31:10.315Z,81.21
2018-10-01T08:32:10.379Z,81.50
2018-10-01T08:33:10.331Z,81.79
2018-10-01T08:34:10.351Z,81.79
2018-10-01T08:35:10.488Z,81.70
2018-10-01T08:36:10.369Z,81.30
2018-10-01T08:37:10.403Z,81.02
2018-10-01T08:38:10.535Z,80.83
2018-10-01T08:39:10.411Z,80.73
2018-10-01T08:40:10.525Z,80.92
2018-10-01T08:41:10.482Z,81.21
2018-10-01T08:42:10.493Z,80.73
2018-10-01T08:43:10.474Z,80.25
2018-10-01T08:44:10.549Z,80.44
2018-10-01T08:45:10.610Z,80.44
2018-10-01T08:46:10.528Z,80.35
2018-10-01T08:47:10.601Z,80.63
2018-10-01T08:48:10.549Z,80.35
2018-10-01T08:49:10.563Z,80.92
2018-10-01T08:50:10.955Z,81.30
2018-10-01T08:51:10.587Z,81.30
2018-10-01T08:52:10.672Z,81.30
2018-10-01T08:53:10.637Z,81.88
2018-10-01T08:54:10.642Z,81.88
2018-10-01T08:55:10.756Z,82.37
2018-10-01T08:56:10.696Z,83.23
2018-10-01T08:57:10.684Z,82.65
2018-10-01T08:58:10.697Z,82.56
2018-10-01T08:59:10.790Z,82.75
2018-10-01T09:00:10.831Z,83.42
2018-10-01T09:01:10.757Z,84.10
2018-10-01T09:02:10.812Z,83.72
2018-10-01T09:03:10.777Z,83.72
2018-10-01T09:04:10.832Z,84.00
2018-10-01T09:05:11.155Z,84.29
2018-10-01T09:06:10.817Z,84.48
2018-10-01T09:07:10.831Z,84.29
2018-10-01T09:08:10.906Z,84.00
2018-10-01T09:09:10.849Z,83.81
2018-10-01T09:10:10.864Z,84.58
2018-10-01T09:11:11.222Z,84.10
2018-10-01T09:12:10.895Z,83.72
2018-10-01T09:13:10.918Z,83.72
2018-10-01T09:14:11.024Z,83.42
2018-10-01T09:15:10.937Z,83.81
2018-10-01T09:16:10.964Z,84.67
2018-10-01T09:17:11.162Z,85.25
2018-10-01T09:18:10.999Z,85.35
2018-10-01T09:19:11.000Z,84.48
2018-10-01T09:20:11.052Z,85.16
2018-10-01T09:21:11.037Z,85.20
2018-10-01T09:22:11.150Z,85.35
2018-10-01T09:23:11.108Z,84.91
2018-10-01T09:24:11.072Z,84.81
2018-10-01T09:25:11.089Z,84.62
2018-10-01T09:26:11.188Z,85.20
2018-10-01T09:27:11.215Z,84.91
2018-10-01T09:28:11.127Z,83.95
2018-10-01T09:29:11.170Z,83.95
2018-10-01T09:30:11.172Z,84.05
2018-10-01T09:31:11.281Z,83.37
2018-10-01T09:32:11.385Z,83.95
2018-10-01T09:33:11.207Z,83.66
2018-10-01T09:34:11.230Z,83.75
2018-10-01T09:35:11.345Z,83.95
2018-10-01T09:36:11.251Z,83.66
2018-10-01T09:37:11.367Z,83.28
2018-10-01T09:38:11.360Z,83.47
2018-10-01T09:39:11.312Z,83.47
2018-10-01T09:40:11.346Z,83.37
2018-10-01T09:41:11.323Z,83.75
2018-10-01T09:42:11.538Z,84.14
2018-10-01T09:43:11.367Z,83.95
2018-10-01T09:44:11.456Z,84.05
2018-10-01T09:45:11.401Z,83.99
2018-10-01T09:46:11.434Z,83.37
2018-10-01T09:47:11.666Z,83.47
2018-10-01T09:48:11.437Z,83.66
2018-10-01T09:49:11.462Z,84.09
2018-10-01T09:50:11.490Z,84.09
2018-10-01T09:51:11.487Z,83.51
2018-10-01T09:52:11.780Z,83.80
2018-10-01T09:53:11.566Z,83.41
2018-10-01T09:54:11.520Z,83.41
2018-10-01T09:55:11.534Z,83.41
2018-10-01T09:56:11.610Z,83.99
2018-10-01T09:57:11.837Z,83.31
2018-10-01T09:58:11.601Z,83.51
2018-10-01T09:59:11.615Z,83.51
2018-10-01T10:00:11.620Z,83.51
2018-10-01T10:01:11.631Z,83.41
2018-10-01T10:02:11.859Z,83.22
2018-10-01T10:03:11.664Z,80.91
2018-10-01T10:04:11.836Z,80.43
2018-10-01T10:05:11.698Z,81.01
2018-10-01T10:06:11.718Z,81.29
2018-10-01T10:07:11.974Z,81.48
2018-10-01T10:08:11.778Z,80.33
2018-10-01T10:09:11.756Z,80.33
2018-10-01T10:10:11.805Z,78.73
2018-10-01T10:11:11.792Z,77.58
2018-10-01T10:12:11.811Z,76.23
2018-10-01T10:13:11.921Z,77.73
2018-10-01T10:14:11.919Z,76.42
2018-10-01T10:15:11.861Z,76.61
2018-10-01T10:16:11.962Z,76.61
2018-10-01T10:17:11.879Z,76.90
2018-10-01T10:18:11.997Z,76.42
2018-10-01T10:19:11.915Z,74.30
2018-10-01T10:20:12.040Z,74.40
2018-10-01T10:21:11.954Z,75.16
2018-10-01T10:22:12.048Z,74.49
2018-10-01T10:23:11.982Z,74.40
2018-10-01T10:24:12.089Z,74.72
2018-10-01T10:25:12.018Z,73.95
2018-10-01T10:26:12.077Z,73.47
2018-10-01T10:27:12.090Z,72.60
2018-10-01T10:28:12.273Z,71.64
2018-10-01T10:29:12.183Z,70.86
2018-10-01T10:30:12.084Z,71.92
2018-10-01T10:31:12.117Z,71.06
2018-10-01T10:32:12.235Z,70.28
2018-10-01T10:33:12.140Z,69.42
2018-10-01T10:34:12.396Z,69.23
2018-10-01T10:35:12.175Z,69.03
2018-10-01T10:36:12.188Z,68.74
2018-10-01T10:37:12.201Z,68.65
2018-10-01T10:38:12.228Z,68.74
2018-10-01T10:39:12.339Z,68.26
2018-10-01T10:40:12.248Z,68.55
2018-10-01T10:41:12.257Z,68.16
2018-10-01T10:42:12.295Z,67.10
2018-10-01T10:43:12.301Z,67.49
2018-10-01T10:44:12.460Z,67.68
2018-10-01T10:45:12.329Z,67.20
2018-10-01T10:46:12.338Z,67.00
2018-10-01T10:47:12.355Z,66.62
2018-10-01T10:48:12.472Z,67.30
2018-10-01T10:49:12.492Z,67.49
2018-10-01T10:50:12.485Z,66.91
2018-10-01T10:51:12.418Z,67.20
2018-10-01T10:52:12.429Z,67.20
2018-10-01T10:53:12.463Z,67.49
2018-10-01T10:54:12.567Z,67.58
2018-10-01T10:55:12.498Z,67.49
2018-10-01T10:56:12.537Z,67.68
2018-10-01T10:57:12.525Z,67.88
2018-10-01T10:58:12.527Z,68.26
2018-10-01T10:59:12.642Z,68.26
2018-10-01T11:00:12.571Z,68.07
2018-10-01T11:01:12.593Z,66.72
2018-10-01T11:02:12.657Z,66.43
2018-10-01T11:03:12.605Z,66.75
2018-10-01T11:04:12.720Z,66.46
2018-10-01T11:05:12.651Z,66.66
2018-10-01T11:06:12.653Z,66.85
2018-10-01T11:07:12.724Z,66.56
2018-10-01T11:08:12.822Z,66.46
2018-10-01T11:09:12.799Z,65.78
2018-10-01T11:10:12.727Z,65.50
2018-10-01T11:11:12.736Z,65.59
2018-10-01T11:12:12.758Z,65.69
2018-10-01T11:13:12.779Z,65.40
2018-10-01T11:14:13.049Z,64.92
2018-10-01T11:15:13.072Z,64.92
2018-10-01T11:16:12.828Z,64.92
2018-10-01T11:17:12.833Z,64.72
2018-10-01T11:18:12.915Z,64.43
2018-10-01T11:19:13.205Z,64.72
2018-10-01T11:20:13.027Z,64.15
2018-10-01T11:21:12.915Z,64.05
2018-10-01T11:22:12.925Z,64.05
2018-10-01T11:23:12.968Z,63.76
2018-10-01T11:24:12.953Z,62.02
2018-10-01T11:25:13.177Z,62.51
2018-10-01T11:26:12.980Z,62.51
2018-10-01T11:27:13.030Z,62.51
2018-10-01T11:28:13.024Z,62.22
2018-10-01T11:29:13.035Z,61.86
2018-10-01T11:30:13.142Z,62.12
2018-10-01T11:31:13.054Z,62.54
2018-10-01T11:32:13.074Z,62.60
2018-10-01T11:33:13.145Z,62.99
2018-10-01T11:34:13.113Z,63.47
2018-10-01T11:35:13.446Z,63.79
2018-10-01T11:36:13.149Z,64.05
2018-10-01T11:37:13.166Z,64.15
2018-10-01T11:38:13.188Z,64.15
2018-10-01T11:39:13.356Z,62.70
2018-10-01T11:40:13.296Z,62.60
2018-10-01T11:41:13.223Z,62.60
2018-10-01T11:42:13.240Z,62.92
2018-10-01T11:43:13.264Z,63.57
2018-10-01T11:44:13.269Z,63.95
2018-10-01T11:45:13.505Z,63.67
2018-10-01T11:46:13.315Z,63.95
2018-10-01T11:47:13.315Z,63.09
2018-10-01T11:48:13.338Z,62.79
2018-10-01T11:49:13.352Z,62.51
2018-10-01T11:50:13.480Z,62.89
2018-10-01T11:51:13.436Z,62.79
2018-10-01T11:52:13.398Z,62.51
2018-10-01T11:53:13.428Z,62.92
2018-10-01T11:54:13.529Z,62.89
2018-10-01T11:55:13.552Z,63.28
2018-10-01T11:56:13.463Z,62.99
2018-10-01T11:57:13.540Z,62.79
2018-10-01T11:58:13.488Z,63.95
2018-10-01T11:59:13.517Z,64.56
2018-10-01T12:00:13.631Z,64.86
2018-10-01T12:01:13.551Z,63.89
2018-10-01T12:02:13.558Z,64.76
2018-10-01T12:03:13.697Z,64.37
2018-10-01T12:04:13.698Z,64.08
2018-10-01T12:05:13.719Z,64.66
2018-10-01T12:06:13.640Z,64.08
2018-10-01T12:07:13.662Z,64.86
2018-10-01T12:08:13.665Z,63.89
2018-10-01T12:09:13.792Z,64.86
2018-10-01T12:10:13.949Z,64.28
2018-10-01T12:11:13.718Z,63.89
2018-10-01T12:12:13.737Z,64.76
2018-10-01T12:13:13.741Z,63.40
2018-10-01T12:14:13.753Z,63.60
2018-10-01T12:15:13.971Z,65.05
2018-10-01T12:16:13.907Z,65.82
2018-10-01T12:17:13.809Z,62.54
2018-10-01T12:18:13.832Z,62.92
2018-10-01T12:19:13.848Z,62.63
2018-10-01T12:20:13.969Z,61.86
2018-10-01T12:21:13.982Z,62.25
2018-10-01T12:22:13.996Z,60.80
2018-10-01T12:23:13.926Z,60.51
2018-10-01T12:24:13.931Z,60.89
2018-10-01T12:25:13.947Z,61.09
2018-10-01T12:26:14.061Z,61.70
2018-10-01T12:27:14.043Z,59.19
2018-10-01T12:28:14.000Z,58.90
2018-10-01T12:29:14.087Z,59.93
2018-10-01T12:30:14.035Z,60.51
2018-10-01T12:31:14.192Z,61.38
2018-10-01T12:32:14.066Z,62.15
2018-10-01T12:33:14.157Z,62.63
2018-10-01T12:34:14.110Z,61.86
2018-10-01T12:35:14.286Z,62.15
2018-10-01T12:36:14.235Z,61.89
2018-10-01T12:37:14.148Z,61.86
2018-10-01T12:38:14.175Z,61.57
2018-10-01T12:39:14.302Z,60.99
2018-10-01T12:40:14.204Z,61.96
2018-10-01T12:41:14.311Z,61.80
2018-10-01T12:42:14.241Z,60.73
2018-10-01T12:43:14.264Z,59.96
2018-10-01T12:44:14.277Z,59.22
2018-10-01T12:45:14.399Z,60.09
2018-10-01T12:46:14.468Z,59.70
2018-10-01T12:47:14.325Z,58.45
2018-10-01T12:48:14.335Z,57.67
2018-10-01T12:49:14.358Z,55.55
2018-10-01T12:50:14.394Z,55.87
2018-10-01T12:51:14.609Z,56.25
2018-10-01T12:52:14.400Z,55.57